Time;durP1;ratioP1;P1;durP2;ratioP2;P2;SDS_P1;SDS_P2;PMS_P1;PMS_P2;Temp;Humidity;BMP_temperature;BMP_pressure;BME280_temperature;BME280_humidity;BME280_pressure;Samples;Min_cycle;Max_cycle;Signal;HPM_P1;HPM_P2
2022/03/14 00:00:06;;;;;;;10.05;8.45;;;;;;;2.46;51.85;101237.91;4995849;28;21370;-22
2022/03/14 00:02:31;;;;;;;12.77;9.80;;;;;;;2.40;51.73;101238.59;4993388;28;20026;-22
2022/03/14 00:04:57;;;;;;;12.95;9.18;;;;;;;2.37;52.07;101251.50;4991259;28;20080;-22
2022/03/14 00:07:22;;;;;;;14.25;10.57;;;;;;;2.33;52.06;101241.81;4996145;28;20018;-22
2022/03/14 00:09:48;;;;;;;12.93;9.60;;;;;;;2.28;52.08;101254.66;4992073;28;20038;-22
2022/03/14 00:12:23;;;;;;;13.23;10.00;;;;;;;2.23;52.25;101253.63;4996309;28;20018;-22
2022/03/14 00:14:53;;;;;;;17.13;10.20;;;;;;;2.18;52.07;101256.97;4996427;28;20018;-22
2022/03/14 00:17:18;;;;;;;11.10;9.82;;;;;;;2.13;52.31;101255.91;4995444;28;20068;-22
2022/03/14 00:19:44;;;;;;;13.38;9.70;;;;;;;2.08;52.47;101257.47;4992247;28;20030;-22
2022/03/14 00:22:09;;;;;;;12.38;10.13;;;;;;;2.05;52.17;101254.75;4994170;28;20085;-22
2022/03/14 00:24:35;;;;;;;12.82;9.23;;;;;;;2.03;52.34;101261.59;4991372;28;20118;-22
2022/03/14 00:27:01;;;;;;;14.07;10.10;;;;;;;1.99;52.66;101259.72;4994154;28;20078;-22
2022/03/14 00:29:28;;;;;;;14.63;10.20;;;;;;;1.93;52.70;101263.00;4998654;28;20025;-23
2022/03/14 00:31:53;;;;;;;14.15;10.02;;;;;;;1.89;52.77;101264.59;4988935;28;20033;-22
2022/03/14 00:34:18;;;;;;;10.80;9.52;;;;;;;1.86;52.84;101269.69;4977826;28;20045;-22
2022/03/14 00:36:43;;;;;;;13.70;9.85;;;;;;;1.83;52.64;101279.97;4993028;28;20065;-22
2022/03/14 00:39:09;;;;;;;11.93;9.32;;;;;;;1.79;52.49;101272.91;4991870;28;20057;-22
2022/03/14 00:41:34;;;;;;;13.35;9.65;;;;;;;1.75;52.46;101274.50;5004483;28;20113;-22
2022/03/14 00:44:00;;;;;;;13.98;10.10;;;;;;;1.71;52.74;101270.03;5005528;28;20570;-22
2022/03/14 00:46:25;;;;;;;12.50;9.90;;;;;;;1.66;52.82;101263.75;5003816;28;20053;-21
2022/03/14 00:48:51;;;;;;;12.95;9.93;;;;;;;1.63;52.53;101266.22;5002149;28;20025;-23
2022/03/14 00:51:16;;;;;;;13.32;9.38;;;;;;;1.59;52.99;101275.66;5002247;28;20025;-22
2022/03/14 00:53:42;;;;;;;12.82;10.13;;;;;;;1.55;52.60;101268.56;5002557;28;20113;-22
2022/03/14 00:56:08;;;;;;;14.05;10.57;;;;;;;1.50;53.17;101265.78;5004375;28;20492;-22
2022/03/14 00:58:33;;;;;;;14.13;9.27;;;;;;;1.47;52.86;101267.41;5004016;28;20055;-21
2022/03/14 01:00:59;;;;;;;14.07;9.80;;;;;;;1.46;53.14;101268.22;4999249;28;20025;-21
2022/03/14 01:03:25;;;;;;;14.10;9.52;;;;;;;1.40;52.98;101269.75;4993180;28;20037;-22
2022/03/14 01:05:50;;;;;;;13.50;10.00;;;;;;;1.36;53.03;101267.84;4992809;28;20484;-22
2022/03/14 01:08:16;;;;;;;14.38;9.65;;;;;;;1.35;53.25;101273.91;4990818;28;20454;-22
2022/03/14 01:10:41;;;;;;;16.40;10.15;;;;;;;1.31;53.19;101278.91;4992048;28;20089;-21
2022/03/14 01:13:10;;;;;;;12.13;9.95;;;;;;;1.27;53.19;101283.13;4999177;28;20112;-22
2022/03/14 01:15:35;;;;;;;14.23;9.52;;;;;;;1.24;52.83;101286.44;4991910;28;20408;-22
2022/03/14 01:18:00;;;;;;;11.65;9.73;;;;;;;1.20;53.23;101275.91;4993191;28;20030;-22
2022/03/14 01:20:26;;;;;;;12.30;10.07;;;;;;;1.15;53.41;101279.22;4993636;28;20104;-22
2022/03/14 01:22:54;;;;;;;12.00;9.25;;;;;;;1.13;53.01;101282.53;4998404;28;20027;-22
2022/03/14 01:25:20;;;;;;;10.80;8.73;;;;;;;1.08;52.93;101282.38;4994530;28;20046;-19
2022/03/14 01:27:45;;;;;;;16.45;10.25;;;;;;;1.05;52.89;101282.25;4993593;28;20136;-22
2022/03/14 01:30:11;;;;;;;15.18;10.40;;;;;;;1.01;53.26;101293.34;4993529;28;20026;-23
2022/03/14 01:32:36;;;;;;;14.45;10.43;;;;;;;0.98;53.20;101286.34;4992324;28;20038;-21
2022/03/14 01:35:02;;;;;;;13.70;10.15;;;;;;;0.95;52.89;101291.41;4993807;28;20214;-23
2022/03/14 01:37:31;;;;;;;13.38;9.68;;;;;;;0.91;53.10;101288.59;4972644;28;20145;-22
2022/03/14 01:39:56;;;;;;;16.60;9.43;;;;;;;0.86;53.17;101294.50;4991408;28;20034;-22
2022/03/14 01:42:21;;;;;;;14.10;10.27;;;;;;;0.84;53.39;101292.66;4991002;28;20525;-22
2022/03/14 01:44:47;;;;;;;14.35;10.60;;;;;;;0.80;53.23;101289.03;4999541;28;20088;-21
2022/03/14 01:47:16;;;;;;;14.60;9.95;;;;;;;0.77;53.57;101288.94;4999761;28;20029;-21
2022/03/14 01:49:43;;;;;;;13.80;10.20;;;;;;;0.71;53.56;101291.28;4996153;28;20053;-20
2022/03/14 01:52:09;;;;;;;12.90;9.93;;;;;;;0.71;52.88;101301.66;5004496;28;20059;-22
2022/03/14 01:54:34;;;;;;;13.52;9.43;;;;;;;0.63;53.51;101299.63;5006566;28;20061;-21
2022/03/14 01:57:00;;;;;;;14.15;10.40;;;;;;;0.61;53.26;101296.09;5004301;28;20892;-22
2022/03/14 01:59:29;;;;;;;13.25;9.82;;;;;;;0.59;53.82;101296.84;5006145;28;20096;-21
2022/03/14 02:01:57;;;;;;;12.65;9.77;;;;;;;0.55;53.56;101298.44;5002314;28;20518;-27
2022/03/14 02:04:23;;;;;;;13.45;10.02;;;;;;;0.50;53.61;101297.34;4996652;28;20034;-21
2022/03/14 02:06:49;;;;;;;12.52;10.10;;;;;;;0.47;53.66;101297.22;4998136;28;20027;-22
2022/03/14 02:09:14;;;;;;;15.80;10.73;;;;;;;0.42;53.59;101301.31;4996049;28;20082;-22
2022/03/14 02:12:07;;;;;;;12.68;10.65;;;;;;;0.37;53.18;101294.22;4995378;28;20053;-22
2022/03/14 02:14:39;;;;;;;14.98;10.75;;;;;;;0.35;53.38;101297.56;4996676;28;20058;-21
2022/03/14 02:17:25;;;;;;;15.70;10.10;;;;;;;0.31;53.82;101301.75;4997755;28;20080;-22
2022/03/14 02:19:52;;;;;;;13.32;10.45;;;;;;;0.26;53.52;101303.25;4986658;28;20130;-20
2022/03/14 02:22:17;;;;;;;14.35;10.38;;;;;;;0.21;54.02;101305.66;4998322;28;20032;-22
2022/03/14 02:24:45;;;;;;;13.60;10.52;;;;;;;0.19;53.79;101308.97;4998344;28;20038;-22
2022/03/14 02:27:13;;;;;;;14.07;10.70;;;;;;;0.16;53.33;101307.16;4996564;28;20022;-21
2022/03/14 02:29:39;;;;;;;13.98;10.40;;;;;;;0.12;54.04;101306.16;4997141;28;20026;-22
2022/03/14 02:32:05;;;;;;;15.25;10.50;;;;;;;0.08;53.80;101308.53;4998559;28;20050;-22
2022/03/14 02:34:31;;;;;;;12.90;10.77;;;;;;;0.05;53.65;101310.97;4997353;28;20503;-22
2022/03/14 02:36:57;;;;;;;14.77;9.35;;;;;;;0.01;53.94;101309.97;4998672;28;20026;-20
2022/03/14 02:39:22;;;;;;;12.68;9.35;;;;;;;-0.02;54.15;101312.41;4994507;28;20019;-23
2022/03/14 02:41:48;;;;;;;13.77;10.27;;;;;;;-0.06;54.20;101313.09;4999363;28;20105;-21
2022/03/14 02:44:13;;;;;;;12.73;10.38;;;;;;;-0.10;54.12;101326.75;4998276;28;20041;-22
2022/03/14 02:46:40;;;;;;;12.60;9.32;;;;;;;-0.13;54.06;101320.59;4998960;28;20038;-24
2022/03/14 02:49:06;;;;;;;12.80;9.68;;;;;;;-0.17;54.50;101323.00;4997381;28;20031;-22
2022/03/14 02:51:34;;;;;;;14.35;10.50;;;;;;;-0.21;54.08;101311.59;4994107;28;20040;-22
2022/03/14 02:54:04;;;;;;;14.48;10.32;;;;;;;-0.23;54.54;101308.06;4997213;28;20116;-22
2022/03/14 02:56:29;;;;;;;15.50;10.40;;;;;;;-0.27;54.08;101322.56;4996025;28;20015;-21
2022/03/14 02:58:55;;;;;;;12.68;10.75;;;;;;;-0.29;54.40;101320.72;4987654;28;20273;-23
2022/03/14 03:01:21;;;;;;;13.48;9.80;;;;;;;-0.33;54.04;101326.59;4977657;28;20028;-22
2022/03/14 03:03:47;;;;;;;14.85;10.35;;;;;;;-0.38;54.28;101334.13;4996135;28;20034;-23
2022/03/14 03:06:13;;;;;;;14.77;9.73;;;;;;;-0.41;54.32;101329.72;4997007;28;20026;-22
2022/03/14 03:08:41;;;;;;;13.18;9.60;;;;;;;-0.44;54.52;101334.75;4996058;28;20073;-22
2022/03/14 03:11:08;;;;;;;15.30;10.18;;;;;;;-0.46;54.64;101341.56;4981518;28;20033;-21
2022/03/14 03:13:34;;;;;;;13.13;9.60;;;;;;;-0.49;54.08;101345.72;5000578;28;20054;-23
2022/03/14 03:16:00;;;;;;;13.27;9.23;;;;;;;-0.53;54.66;101342.97;4998614;28;20101;-22
2022/03/14 03:18:26;;;;;;;15.23;10.57;;;;;;;-0.55;54.34;101351.50;4992485;28;20066;-22
2022/03/14 03:20:51;;;;;;;15.05;10.60;;;;;;;-0.60;54.62;101345.22;4999697;28;20021;-22
2022/03/14 03:23:18;;;;;;;17.85;10.70;;;;;;;-0.62;54.67;101349.41;5004391;28;20025;-22
2022/03/14 03:25:43;;;;;;;14.75;10.73;;;;;;;-0.66;54.31;101346.69;5004657;28;20030;-21
2022/03/14 03:28:09;;;;;;;13.43;10.25;;;;;;;-0.68;54.44;101361.28;5004632;28;20160;-21
2022/03/14 03:30:34;;;;;;;13.45;10.55;;;;;;;-0.70;54.14;101362.03;4998518;28;20512;-22
2022/03/14 03:32:59;;;;;;;17.73;10.90;;;;;;;-0.73;54.36;101356.69;4993027;28;20076;-21
2022/03/14 03:35:25;;;;;;;14.30;10.57;;;;;;;-0.77;54.23;101358.22;4995351;28;20022;-22
2022/03/14 03:37:50;;;;;;;12.07;9.88;;;;;;;-0.81;54.89;101353.72;4992054;28;20033;-22
2022/03/14 03:40:15;;;;;;;14.70;11.05;;;;;;;-0.83;54.83;101355.34;4998128;28;20432;-21
2022/03/14 03:42:41;;;;;;;14.05;9.75;;;;;;;-0.85;54.82;101349.19;4994508;28;20023;-22
2022/03/14 03:45:07;;;;;;;15.82;10.38;;;;;;;-0.90;54.43;101351.59;4992784;28;20468;-23
2022/03/14 03:47:33;;;;;;;16.10;10.77;;;;;;;-0.92;54.45;101355.78;4994559;28;20070;-22
2022/03/14 03:49:58;;;;;;;13.93;10.40;;;;;;;-0.95;54.56;101372.06;4997630;28;20026;-23
2022/03/14 03:52:23;;;;;;;13.52;10.55;;;;;;;-0.98;54.50;101368.44;4993101;28;20048;-20
2022/03/14 03:54:49;;;;;;;15.38;10.27;;;;;;;-1.02;54.78;101370.00;4992672;28;20562;-22
2022/03/14 03:57:14;;;;;;;18.70;10.82;;;;;;;-1.04;54.79;101379.38;4995452;28;20030;-22
2022/03/14 03:59:40;;;;;;;16.65;10.23;;;;;;;-1.07;55.26;101377.53;4994870;28;20029;-22
2022/03/14 04:02:07;;;;;;;15.13;10.27;;;;;;;-1.08;54.76;101382.63;4994191;28;20551;-22
2022/03/14 04:04:33;;;;;;;14.80;10.68;;;;;;;-1.11;55.19;101379.88;4992581;28;20022;-21
2022/03/14 04:07:00;;;;;;;17.08;11.07;;;;;;;-1.14;55.30;101390.97;4997487;28;20057;-20
2022/03/14 04:09:26;;;;;;;13.60;10.10;;;;;;;-1.15;55.51;101399.56;4995206;28;20847;-22
2022/03/14 04:11:51;;;;;;;13.90;10.65;;;;;;;-1.19;54.72;101403.69;4993725;28;20021;-23
2022/03/14 04:14:18;;;;;;;13.65;10.93;;;;;;;-1.22;55.05;101398.38;4992417;28;20018;-22
2022/03/14 04:16:43;;;;;;;15.45;10.27;;;;;;;-1.23;55.34;101395.69;4993316;28;20034;-23
2022/03/14 04:19:09;;;;;;;13.32;10.27;;;;;;;-1.25;54.81;101392.13;4993620;28;20034;-20
2022/03/14 04:21:36;;;;;;;15.30;10.27;;;;;;;-1.29;54.92;101380.75;4990719;28;20384;-22
2022/03/14 04:24:04;;;;;;;15.13;10.48;;;;;;;-1.32;55.12;101390.94;4993801;28;20022;-22
2022/03/14 04:26:30;;;;;;;11.80;9.65;;;;;;;-1.35;55.51;101390.75;4997329;28;20026;-22
2022/03/14 04:28:55;;;;;;;14.10;10.85;;;;;;;-1.37;55.03;101382.06;4996633;28;20034;-21
2022/03/14 04:31:21;;;;;;;14.90;10.40;;;;;;;-1.40;54.93;101377.56;4995175;28;20033;-22
2022/03/14 04:33:47;;;;;;;13.18;9.70;;;;;;;-1.43;55.45;101386.09;4998498;28;20101;-23
2022/03/14 04:36:13;;;;;;;15.73;9.98;;;;;;;-1.45;55.15;101390.31;4995706;28;20078;-21
2022/03/14 04:38:38;;;;;;;11.98;9.80;;;;;;;-1.47;55.17;101380.69;4973789;28;20389;-21
2022/03/14 04:41:04;;;;;;;15.82;9.85;;;;;;;-1.49;55.19;101382.28;4995818;28;20022;-20
2022/03/14 04:43:30;;;;;;;15.93;10.68;;;;;;;-1.53;55.32;101386.44;4994896;28;20049;-22
2022/03/14 04:45:55;;;;;;;15.82;10.23;;;;;;;-1.55;55.58;101385.47;4995220;28;20090;-22
2022/03/14 04:48:23;;;;;;;14.68;10.18;;;;;;;-1.59;55.27;101383.53;4992023;28;20075;-22
2022/03/14 04:50:50;;;;;;;13.48;10.48;;;;;;;-1.62;55.70;101392.00;4998034;28;20025;-22
2022/03/14 04:53:16;;;;;;;13.95;10.43;;;;;;;-1.64;55.54;101385.00;5001326;28;20077;-22
2022/03/14 04:55:42;;;;;;;12.88;10.00;;;;;;;-1.65;55.33;101380.59;5005329;28;20025;-21
2022/03/14 04:58:12;;;;;;;15.52;10.07;;;;;;;-1.69;55.17;101385.63;5001706;28;20030;-22
2022/03/14 05:00:38;;;;;;;16.38;11.18;;;;;;;-1.71;55.68;101387.25;4999977;28;20029;-20
2022/03/14 05:03:04;;;;;;;13.00;10.05;;;;;;;-1.73;55.25;101394.00;4993776;28;20026;-22
2022/03/14 05:05:30;;;;;;;13.43;10.07;;;;;;;-1.76;55.97;101399.06;4995182;28;20076;-22
2022/03/14 05:07:55;;;;;;;14.68;11.23;;;;;;;-1.78;55.84;101402.34;4992592;28;20023;-21
2022/03/14 05:10:21;;;;;;;12.75;9.85;;;;;;;-1.81;55.34;101410.81;4994959;28;20022;-20
2022/03/14 05:12:47;;;;;;;12.65;10.02;;;;;;;-1.82;55.43;101398.72;4995294;28;20024;-22
2022/03/14 05:15:16;;;;;;;13.93;10.60;;;;;;;-1.85;55.34;101402.03;4993746;28;20049;-21
2022/03/14 05:17:42;;;;;;;15.68;9.88;;;;;;;-1.87;55.68;101410.53;4994461;28;20026;-22
2022/03/14 05:20:09;;;;;;;16.10;10.55;;;;;;;-1.88;55.46;101411.31;4994139;28;20428;-22
2022/03/14 05:22:41;;;;;;;13.23;10.23;;;;;;;-1.90;56.01;101405.19;4993152;28;20468;-22
2022/03/14 05:25:07;;;;;;;14.55;11.00;;;;;;;-1.94;55.46;101414.44;4995655;28;20233;-22
2022/03/14 05:27:32;;;;;;;15.20;10.77;;;;;;;-1.96;55.79;101416.94;4993278;28;20107;-22
2022/03/14 05:29:57;;;;;;;14.55;10.60;;;;;;;-1.98;55.69;101426.34;4992273;28;20049;-23
2022/03/14 05:32:23;;;;;;;17.42;12.07;;;;;;;-2.00;55.72;101422.75;4992718;28;20117;-22
2022/03/14 05:34:48;;;;;;;15.73;11.35;;;;;;;-2.04;55.75;101415.66;4977717;28;20053;-22
2022/03/14 05:37:14;;;;;;;12.80;10.55;;;;;;;-2.04;55.92;101426.00;4994387;28;20034;-22
2022/03/14 05:39:39;;;;;;;16.20;11.25;;;;;;;-2.05;55.98;101442.31;4994672;28;20049;-22
2022/03/14 05:42:06;;;;;;;15.18;10.65;;;;;;;-2.07;55.83;101436.16;5005190;28;20022;-22
2022/03/14 05:44:31;;;;;;;16.92;10.10;;;;;;;-2.09;55.44;101440.38;5001352;28;20026;-22
2022/03/14 05:46:56;;;;;;;15.95;11.15;;;;;;;-2.10;55.99;101446.34;5004527;28;20365;-21
2022/03/14 05:49:22;;;;;;;14.45;10.55;;;;;;;-2.13;55.64;101441.00;5003277;28;20022;-21
2022/03/14 05:51:49;;;;;;;15.90;10.43;;;;;;;-2.13;56.18;101438.44;4993828;28;20037;-22
2022/03/14 05:54:14;;;;;;;17.63;10.35;;;;;;;-2.16;56.04;101444.31;4992992;28;20022;-21
2022/03/14 05:56:40;;;;;;;14.85;10.75;;;;;;;-2.17;56.11;101444.22;4992454;28;20064;-21
2022/03/14 05:59:07;;;;;;;14.32;10.40;;;;;;;-2.20;55.92;101443.25;4991391;28;20027;-22
2022/03/14 06:01:32;;;;;;;19.75;11.00;;;;;;;-2.21;56.09;101456.06;4996940;28;20122;-22
2022/03/14 06:03:58;;;;;;;17.38;10.45;;;;;;;-2.22;55.81;101457.78;4995507;28;20046;-22
2022/03/14 06:06:23;;;;;;;16.60;11.48;;;;;;;-2.22;55.99;101465.53;4998751;28;20022;-18
2022/03/14 06:08:48;;;;;;;16.70;11.38;;;;;;;-2.24;56.03;101467.13;5001250;28;20031;-22
2022/03/14 06:11:14;;;;;;;16.10;10.77;;;;;;;-2.24;56.11;101466.25;4998503;28;20030;-22
2022/03/14 06:13:40;;;;;;;17.73;11.75;;;;;;;-2.25;56.08;101465.38;5000152;28;20083;-22
2022/03/14 06:16:06;;;;;;;18.02;10.77;;;;;;;-2.25;56.29;101462.78;5002484;28;20121;-22
2022/03/14 06:18:31;;;;;;;16.10;11.18;;;;;;;-2.26;56.64;101468.75;4998350;28;20026;-21
2022/03/14 06:20:57;;;;;;;14.13;11.20;;;;;;;-2.26;56.57;101473.03;4994645;28;20396;-22
2022/03/14 06:23:22;;;;;;;15.98;11.30;;;;;;;-2.26;56.70;101480.78;4990738;28;20086;-22
2022/03/14 06:25:49;;;;;;;14.60;11.05;;;;;;;-2.27;56.50;101485.06;4992747;28;20623;-22
2022/03/14 06:28:15;;;;;;;16.88;10.98;;;;;;;-2.27;56.39;101490.22;4992607;28;20030;-21
2022/03/14 06:30:41;;;;;;;19.17;11.55;;;;;;;-2.26;56.39;101494.63;4997956;28;20030;-21
2022/03/14 06:33:06;;;;;;;13.82;10.70;;;;;;;-2.26;56.74;101502.38;4997645;28;20033;-22
2022/03/14 06:35:32;;;;;;;15.65;10.40;;;;;;;-2.26;56.63;101507.53;4997062;28;20085;-19
2022/03/14 06:37:57;;;;;;;15.02;10.95;;;;;;;-2.25;56.61;101503.22;4998191;28;20041;-22
2022/03/14 06:40:26;;;;;;;14.30;11.05;;;;;;;-2.25;56.44;101498.06;4997166;28;20038;-22
2022/03/14 06:42:52;;;;;;;17.20;11.40;;;;;;;-2.23;56.76;101501.66;4997773;28;20113;-22
2022/03/14 06:45:24;;;;;;;19.20;11.57;;;;;;;-2.24;56.74;101499.84;4998254;28;20026;-22
2022/03/14 06:47:54;;;;;;;17.58;11.65;;;;;;;-2.21;56.69;101512.94;4996475;28;20030;-20
2022/03/14 06:50:21;;;;;;;17.92;12.23;;;;;;;-2.19;56.63;101509.63;4994266;28;20018;-20
2022/03/14 06:52:47;;;;;;;18.70;12.40;;;;;;;-2.16;56.77;101510.63;4992842;28;20025;-22
2022/03/14 06:55:13;;;;;;;17.92;11.70;;;;;;;-2.14;56.32;101511.63;4996178;28;20014;-22
2022/03/14 06:57:38;;;;;;;17.85;11.40;;;;;;;-2.12;56.89;101507.41;4994467;28;20042;-20
2022/03/14 07:00:05;;;;;;;15.20;11.07;;;;;;;-2.09;56.69;101521.41;4998898;28;20361;-22
2022/03/14 07:02:30;;;;;;;17.52;12.15;;;;;;;-2.06;56.46;101515.53;5010269;28;20025;-22
2022/03/14 07:04:55;;;;;;;18.50;11.90;;;;;;;-2.02;56.96;101524.31;5004955;28;20022;-22
2022/03/14 07:07:21;;;;;;;15.15;11.48;;;;;;;-1.97;57.00;101518.59;5006210;28;20038;-22
2022/03/14 07:09:46;;;;;;;18.45;11.82;;;;;;;-1.94;57.20;101523.06;5006404;28;20068;-21
2022/03/14 07:12:12;;;;;;;17.13;11.65;;;;;;;-1.87;57.21;101532.06;4998845;28;20026;-22
2022/03/14 07:14:38;;;;;;;17.67;13.55;;;;;;;-1.84;57.71;101534.78;4995841;28;20058;-22
2022/03/14 07:17:04;;;;;;;21.48;12.27;;;;;;;-1.78;57.54;101529.97;4995632;28;20033;-22
2022/03/14 07:19:29;;;;;;;18.23;12.02;;;;;;;-1.71;57.08;101542.44;4997105;28;20014;-22
2022/03/14 07:21:55;;;;;;;17.50;12.23;;;;;;;-1.62;57.15;101536.00;4999130;28;20057;-22
2022/03/14 07:24:20;;;;;;;21.05;12.65;;;;;;;-1.55;57.53;101540.69;4999238;28;20033;-21
2022/03/14 07:26:45;;;;;;;14.27;11.20;;;;;;;-1.47;57.47;101536.81;4995694;28;20037;-22
2022/03/14 07:29:11;;;;;;;17.70;11.80;;;;;;;-1.40;56.90;101540.63;4995319;28;20382;-22
2022/03/14 07:31:37;;;;;;;17.70;13.05;;;;;;;-1.33;57.13;101549.63;4996609;28;20046;-22
2022/03/14 07:34:03;;;;;;;20.60;13.57;;;;;;;-1.25;56.93;101547.44;4997506;28;20027;-22
2022/03/14 07:36:29;;;;;;;17.13;13.45;;;;;;;-1.17;56.56;101556.50;4994767;28;20058;-22
2022/03/14 07:38:56;;;;;;;18.27;12.40;;;;;;;-1.09;56.88;101552.66;4993032;28;20101;-22
2022/03/14 07:41:22;;;;;;;19.52;13.45;;;;;;;-1.01;56.82;101558.22;4996758;28;20366;-22
2022/03/14 07:43:47;;;;;;;18.80;12.93;;;;;;;-0.93;56.89;101550.88;4995531;28;21288;-22
2022/03/14 07:46:13;;;;;;;20.30;13.73;;;;;;;-0.83;57.21;101557.41;4996752;28;20272;-22
2022/03/14 07:48:38;;;;;;;18.60;13.18;;;;;;;-0.74;57.04;101552.69;4996693;28;20030;-21
2022/03/14 07:51:04;;;;;;;18.33;13.65;;;;;;;-0.64;56.57;101559.22;4983534;28;20041;-22
2022/03/14 07:53:32;;;;;;;19.83;14.43;;;;;;;-0.52;56.63;101559.88;4992344;28;20035;-22
2022/03/14 07:55:57;;;;;;;20.45;12.88;;;;;;;-0.40;57.12;101559.59;4998490;28;20535;-22
2022/03/14 07:58:23;;;;;;;17.13;12.38;;;;;;;-0.27;56.90;101560.19;4993981;28;20097;-20
2022/03/14 08:00:48;;;;;;;20.13;13.55;;;;;;;-0.15;56.94;101566.00;4994848;28;20092;-22
2022/03/14 08:03:16;;;;;;;18.17;13.38;;;;;;;-0.03;57.08;101555.31;4994441;28;20057;-22
2022/03/14 08:05:42;;;;;;;21.45;12.88;;;;;;;0.09;57.37;101548.97;4995226;28;20034;-23
2022/03/14 08:08:08;;;;;;;18.13;12.77;;;;;;;0.20;57.17;101546.91;4996484;28;20026;-22
2022/03/14 08:10:36;;;;;;;19.88;13.85;;;;;;;0.30;57.10;101551.69;4996657;28;20041;-21
2022/03/14 08:13:02;;;;;;;19.48;13.52;;;;;;;0.42;56.48;101553.06;4992897;28;20022;-21
2022/03/14 08:15:28;;;;;;;22.83;12.77;;;;;;;0.51;56.93;101554.41;4993264;28;20140;-21
2022/03/14 08:17:55;;;;;;;19.10;12.80;;;;;;;0.62;56.12;101554.00;4993895;28;20121;-22
2022/03/14 08:20:22;;;;;;;17.08;12.10;;;;;;;0.70;56.20;101554.38;4994242;28;20118;-21
2022/03/14 08:22:49;;;;;;;22.50;13.05;;;;;;;0.77;56.43;101556.44;4994839;28;20081;-22
2022/03/14 08:25:14;;;;;;;20.00;12.88;;;;;;;0.87;56.48;101562.94;4997676;28;20026;-21
2022/03/14 08:27:40;;;;;;;19.02;12.77;;;;;;;0.98;56.19;101558.22;4995603;28;20496;-21
2022/03/14 08:30:06;;;;;;;18.60;13.07;;;;;;;1.06;55.83;101559.44;4992895;28;20018;-21
2022/03/14 08:32:32;;;;;;;18.67;13.43;;;;;;;1.15;56.12;101565.06;4994399;28;20042;-20
2022/03/14 08:34:59;;;;;;;17.85;13.00;;;;;;;1.27;56.46;101566.41;4995201;28;20504;-21
2022/03/14 08:37:24;;;;;;;16.58;13.05;;;;;;;1.37;56.47;101572.91;4994109;28;20060;-22
2022/03/14 08:39:50;;;;;;;19.50;13.35;;;;;;;1.48;56.16;101575.94;4996486;28;20041;-20
2022/03/14 08:42:15;;;;;;;19.83;13.88;;;;;;;1.56;56.37;101577.16;5007735;28;20029;-21
2022/03/14 08:44:41;;;;;;;17.77;13.13;;;;;;;1.67;56.01;101575.91;5001935;28;20132;-22
2022/03/14 08:47:07;;;;;;;21.45;13.32;;;;;;;1.76;56.21;101566.69;5003767;28;20391;-22
2022/03/14 08:49:33;;;;;;;18.05;14.27;;;;;;;1.85;55.79;101574.91;5006194;28;20080;-22
2022/03/14 08:51:58;;;;;;;15.93;12.95;;;;;;;1.96;55.97;101571.88;4995511;28;20515;-22
2022/03/14 08:54:23;;;;;;;19.27;13.93;;;;;;;2.07;56.29;101565.38;4993376;28;20635;-22
2022/03/14 08:56:50;;;;;;;19.55;13.93;;;;;;;2.16;56.10;101575.25;4996300;28;20065;-22
2022/03/14 08:59:15;;;;;;;18.95;13.27;;;;;;;2.27;55.83;101575.69;4976096;28;20022;-22
2022/03/14 09:01:41;;;;;;;19.23;13.60;;;;;;;2.37;55.95;101575.22;4994769;28;20113;-22
2022/03/14 09:04:07;;;;;;;17.23;13.85;;;;;;;2.47;55.78;101583.41;4993165;28;20028;-22
2022/03/14 09:06:35;;;;;;;19.13;13.93;;;;;;;2.55;55.83;101580.28;4994872;28;20459;-23
2022/03/14 09:09:01;;;;;;;23.33;13.70;;;;;;;2.64;55.78;101579.72;4993251;28;20117;-21
2022/03/14 09:11:27;;;;;;;20.48;13.35;;;;;;;2.73;55.23;101583.53;4987841;28;20100;-21
2022/03/14 09:13:52;;;;;;;18.35;13.15;;;;;;;2.83;55.24;101588.22;4997811;28;20408;-22
2022/03/14 09:16:19;;;;;;;20.40;13.05;;;;;;;2.89;54.97;101591.09;4994347;28;20397;-22
2022/03/14 09:18:45;;;;;;;19.25;14.23;;;;;;;3.00;54.79;101598.41;4989957;28;20028;-22
2022/03/14 09:21:12;;;;;;;19.20;13.35;;;;;;;3.09;54.91;101603.97;4995703;28;20018;-22
2022/03/14 09:23:39;;;;;;;17.92;12.82;;;;;;;3.15;54.90;101604.19;4994650;28;20053;-22
2022/03/14 09:26:05;;;;;;;19.83;12.68;;;;;;;3.25;54.54;101604.50;4995364;28;20034;-22
2022/03/14 09:28:30;;;;;;;17.88;13.57;;;;;;;3.32;54.40;101610.03;4996043;28;20134;-22
2022/03/14 09:30:56;;;;;;;17.52;13.63;;;;;;;3.43;54.94;101609.50;4994444;28;20036;-21
2022/03/14 09:33:21;;;;;;;17.45;13.57;;;;;;;3.53;54.61;101615.97;4993621;28;20616;-22
2022/03/14 09:35:47;;;;;;;16.98;13.13;;;;;;;3.62;54.36;101615.38;4994602;28;20029;-23
2022/03/14 09:38:14;;;;;;;18.70;13.18;;;;;;;3.72;54.35;101627.91;4994255;28;20396;-22
2022/03/14 09:40:41;;;;;;;16.60;12.57;;;;;;;3.83;54.87;101618.72;4991272;28;20030;-21
2022/03/14 09:43:07;;;;;;;18.33;13.40;;;;;;;3.96;54.63;101638.31;4994615;28;20077;-21
2022/03/14 09:45:35;;;;;;;16.95;12.35;;;;;;;4.07;54.64;101635.16;4995288;28;20034;-22
2022/03/14 09:48:02;;;;;;;20.13;13.93;;;;;;;4.21;54.39;101639.09;4993416;28;20089;-21
2022/03/14 09:50:33;;;;;;;18.10;13.70;;;;;;;4.32;54.35;101638.56;4995785;28;20585;-23
2022/03/14 09:53:03;;;;;;;17.30;13.13;;;;;;;4.43;54.33;101641.53;5003978;28;20430;-22
2022/03/14 09:55:28;;;;;;;17.77;14.32;;;;;;;4.56;54.49;101642.78;4999751;28;20027;-23
2022/03/14 09:57:55;;;;;;;20.23;12.75;;;;;;;4.67;53.74;101641.41;5010061;28;20526;-23
2022/03/14 10:00:20;;;;;;;19.67;14.70;;;;;;;4.80;54.17;101636.56;5000343;28;20030;-22
2022/03/14 10:02:46;;;;;;;19.85;14.32;;;;;;;4.92;53.42;101634.31;4996217;28;20022;-22
2022/03/14 10:05:15;;;;;;;18.20;13.43;;;;;;;5.07;53.29;101643.47;4997723;28;20384;-21
2022/03/14 10:07:43;;;;;;;21.00;13.18;;;;;;;5.17;53.39;101639.38;4979467;28;20045;-22
2022/03/14 10:10:09;;;;;;;18.42;13.73;;;;;;;5.28;53.58;101637.06;5001246;28;20401;-22
2022/03/14 10:12:35;;;;;;;20.73;12.68;;;;;;;5.39;52.49;101647.00;4998574;28;20117;-23
2022/03/14 10:15:02;;;;;;;18.20;14.10;;;;;;;5.52;51.30;101636.88;4997734;28;20054;-23
2022/03/14 10:17:28;;;;;;;19.02;13.60;;;;;;;5.67;52.19;101638.13;4999837;28;20030;-23
2022/03/14 10:19:58;;;;;;;19.92;12.63;;;;;;;5.80;51.30;101641.97;4993489;28;20024;-22
2022/03/14 10:22:24;;;;;;;17.73;13.55;;;;;;;5.92;52.11;101647.53;4990959;28;20018;-22
2022/03/14 10:25:02;;;;;;;19.95;13.48;;;;;;;6.01;50.98;101641.63;5006501;28;20076;-21
2022/03/14 10:27:27;;;;;;;18.63;13.98;;;;;;;6.16;50.85;101641.16;5007053;28;20015;-22
2022/03/14 10:29:53;;;;;;;18.25;13.32;;;;;;;6.27;51.92;101650.16;5008919;28;20463;-23
2022/03/14 10:32:29;;;;;;;17.33;13.63;;;;;;;6.38;51.31;101653.06;5001538;28;20029;-20
2022/03/14 10:34:58;;;;;;;17.08;13.48;;;;;;;6.52;50.71;101669.13;4998161;28;20409;-23
2022/03/14 10:37:27;;;;;;;22.10;13.75;;;;;;;6.64;50.71;101670.25;5001018;28;20105;-19
2022/03/14 10:39:58;;;;;;;19.83;13.82;;;;;;;6.74;50.88;101672.22;4999557;28;20034;-23
2022/03/14 10:42:23;;;;;;;16.70;13.20;;;;;;;6.84;51.16;101680.31;5005254;28;20077;-20
2022/03/14 10:44:49;;;;;;;14.93;13.20;;;;;;;6.92;50.95;101683.97;5014041;28;20281;-22
2022/03/14 10:47:19;;;;;;;20.95;13.48;;;;;;;7.00;50.62;101703.41;5007434;28;20038;-23
2022/03/14 10:49:45;;;;;;;17.55;13.95;;;;;;;7.08;50.68;101707.94;5014464;28;20199;-24
2022/03/14 10:52:13;;;;;;;18.08;13.88;;;;;;;7.17;50.45;101718.66;4999628;28;20046;-22
2022/03/14 10:54:40;;;;;;;20.63;14.02;;;;;;;7.18;50.23;101715.16;5000643;28;20051;-22
2022/03/14 10:57:14;;;;;;;19.27;13.48;;;;;;;7.29;49.95;101718.91;5000140;28;20019;-22
2022/03/14 10:59:40;;;;;;;16.77;12.55;;;;;;;7.34;50.14;101724.25;5000040;28;20049;-23
2022/03/14 11:02:09;;;;;;;19.02;14.68;;;;;;;7.41;50.59;101720.88;5000870;28;20034;-23
2022/03/14 11:04:45;;;;;;;18.38;14.55;;;;;;;7.48;50.28;101719.28;4998424;28;20092;-22
2022/03/14 11:07:11;;;;;;;17.20;13.38;;;;;;;7.56;50.77;101722.97;4998098;28;20057;-22
2022/03/14 11:09:49;;;;;;;18.55;13.07;;;;;;;7.61;50.54;101724.78;4999367;28;20428;-23